sensor_id;sensor_type;location;lat;lon;timestamp;P1;durP1;ratioP1;P2;durP2;ratioP2
5299;SDS011;70402;42.670;23.258;2024-02-23T00:00:26;10.40;;;6.40;;
5299;SDS011;70402;42.670;23.258;2024-02-23T00:02:52;11.70;;;7.20;;
5299;SDS011;70402;42.670;23.258;2024-02-23T00:05:23;11.67;;;6.80;;
5299;SDS011;70402;42.670;23.258;2024-02-23T00:07:49;10.37;;;5.77;;
5299;SDS011;70402;42.670;23.258;2024-02-23T00:10:15;8.67;;;5.07;;
5299;SDS011;70402;42.670;23.258;2024-02-23T00:12:42;9.53;;;5.20;;
5299;SDS011;70402;42.670;23.258;2024-02-23T00:15:09;10.47;;;5.30;;
5299;SDS011;70402;42.670;23.258;2024-02-23T00:17:35;7.33;;;4.80;;
5299;SDS011;70402;42.670;23.258;2024-02-23T00:20:01;6.80;;;4.43;;
5299;SDS011;70402;42.670;23.258;2024-02-23T00:22:27;8.60;;;5.50;;
5299;SDS011;70402;42.670;23.258;2024-02-23T00:24:54;7.87;;;4.50;;
5299;SDS011;70402;42.670;23.258;2024-02-23T00:27:20;6.83;;;4.37;;
5299;SDS011;70402;42.670;23.258;2024-02-23T00:29:46;6.00;;;3.80;;
5299;SDS011;70402;42.670;23.258;2024-02-23T00:32:12;7.90;;;5.07;;
5299;SDS011;70402;42.670;23.258;2024-02-23T00:34:38;8.73;;;5.93;;
5299;SDS011;70402;42.670;23.258;2024-02-23T00:37:04;9.00;;;5.90;;
5299;SDS011;70402;42.670;23.258;2024-02-23T00:39:33;7.87;;;5.43;;
5299;SDS011;70402;42.670;23.258;2024-02-23T00:41:59;16.20;;;6.67;;
5299;SDS011;70402;42.670;23.258;2024-02-23T00:44:25;8.17;;;5.40;;
5299;SDS011;70402;42.670;23.258;2024-02-23T00:46:51;11.67;;;6.20;;
5299;SDS011;70402;42.670;23.258;2024-02-23T00:49:18;12.93;;;6.17;;
5299;SDS011;70402;42.670;23.258;2024-02-23T00:51:44;10.83;;;6.20;;
5299;SDS011;70402;42.670;23.258;2024-02-23T00:54:10;14.43;;;7.93;;
5299;SDS011;70402;42.670;23.258;2024-02-23T00:56:36;14.63;;;7.70;;
5299;SDS011;70402;42.670;23.258;2024-02-23T00:59:02;17.80;;;7.97;;
5299;SDS011;70402;42.670;23.258;2024-02-23T01:01:28;11.33;;;6.20;;
5299;SDS011;70402;42.670;23.258;2024-02-23T01:03:55;17.53;;;6.80;;
5299;SDS011;70402;42.670;23.258;2024-02-23T01:06:21;14.50;;;7.70;;
5299;SDS011;70402;42.670;23.258;2024-02-23T01:08:47;12.00;;;6.60;;
5299;SDS011;70402;42.670;23.258;2024-02-23T01:11:13;11.47;;;5.87;;
5299;SDS011;70402;42.670;23.258;2024-02-23T01:13:39;10.70;;;6.00;;
5299;SDS011;70402;42.670;23.258;2024-02-23T01:16:05;11.37;;;6.63;;
5299;SDS011;70402;42.670;23.258;2024-02-23T01:18:32;17.43;;;6.57;;
5299;SDS011;70402;42.670;23.258;2024-02-23T01:20:58;9.80;;;5.80;;
5299;SDS011;70402;42.670;23.258;2024-02-23T01:23:24;6.77;;;4.90;;
5299;SDS011;70402;42.670;23.258;2024-02-23T01:25:50;7.03;;;4.23;;
5299;SDS011;70402;42.670;23.258;2024-02-23T01:28:17;10.60;;;5.67;;
5299;SDS011;70402;42.670;23.258;2024-02-23T01:30:43;9.03;;;5.73;;
5299;SDS011;70402;42.670;23.258;2024-02-23T01:33:09;9.90;;;5.90;;
5299;SDS011;70402;42.670;23.258;2024-02-23T01:35:35;10.73;;;5.97;;
5299;SDS011;70402;42.670;23.258;2024-02-23T01:38:01;5.70;;;4.73;;
5299;SDS011;70402;42.670;23.258;2024-02-23T01:40:28;9.73;;;5.37;;
5299;SDS011;70402;42.670;23.258;2024-02-23T01:43:03;7.17;;;4.53;;
5299;SDS011;70402;42.670;23.258;2024-02-23T01:45:30;8.57;;;5.50;;
5299;SDS011;70402;42.670;23.258;2024-02-23T01:47:57;5.93;;;4.20;;
5299;SDS011;70402;42.670;23.258;2024-02-23T01:50:23;9.83;;;5.20;;
5299;SDS011;70402;42.670;23.258;2024-02-23T01:52:50;8.03;;;4.63;;
5299;SDS011;70402;42.670;23.258;2024-02-23T01:55:18;9.00;;;5.20;;
5299;SDS011;70402;42.670;23.258;2024-02-23T01:57:44;9.53;;;5.10;;
5299;SDS011;70402;42.670;23.258;2024-02-23T02:00:11;9.73;;;4.70;;
5299;SDS011;70402;42.670;23.258;2024-02-23T02:02:40;6.33;;;4.80;;
5299;SDS011;70402;42.670;23.258;2024-02-23T02:05:07;8.27;;;4.50;;
5299;SDS011;70402;42.670;23.258;2024-02-23T02:07:33;7.93;;;5.10;;
5299;SDS011;70402;42.670;23.258;2024-02-23T02:10:00;6.83;;;4.40;;
5299;SDS011;70402;42.670;23.258;2024-02-23T02:12:26;8.33;;;4.70;;
5299;SDS011;70402;42.670;23.258;2024-02-23T02:14:53;10.97;;;5.83;;
5299;SDS011;70402;42.670;23.258;2024-02-23T02:17:21;10.57;;;5.70;;
5299;SDS011;70402;42.670;23.258;2024-02-23T02:19:47;9.13;;;5.73;;
5299;SDS011;70402;42.670;23.258;2024-02-23T02:22:14;9.23;;;5.23;;
5299;SDS011;70402;42.670;23.258;2024-02-23T02:24:40;8.03;;;4.80;;
5299;SDS011;70402;42.670;23.258;2024-02-23T02:27:08;7.33;;;4.20;;
5299;SDS011;70402;42.670;23.258;2024-02-23T02:29:35;9.37;;;4.47;;
5299;SDS011;70402;42.670;23.258;2024-02-23T02:32:01;7.73;;;5.30;;
5299;SDS011;70402;42.670;23.258;2024-02-23T02:34:28;8.60;;;5.00;;
5299;SDS011;70402;42.670;23.258;2024-02-23T02:36:54;6.60;;;4.70;;
5299;SDS011;70402;42.670;23.258;2024-02-23T02:39:21;6.10;;;4.70;;
5299;SDS011;70402;42.670;23.258;2024-02-23T02:41:49;6.17;;;4.57;;
5299;SDS011;70402;42.670;23.258;2024-02-23T02:44:16;10.60;;;5.53;;
5299;SDS011;70402;42.670;23.258;2024-02-23T02:46:42;8.60;;;5.13;;
5299;SDS011;70402;42.670;23.258;2024-02-23T02:49:08;9.90;;;5.40;;
5299;SDS011;70402;42.670;23.258;2024-02-23T02:51:34;8.57;;;4.83;;
5299;SDS011;70402;42.670;23.258;2024-02-23T02:54:01;5.53;;;4.23;;
5299;SDS011;70402;42.670;23.258;2024-02-23T02:56:27;7.60;;;5.13;;
5299;SDS011;70402;42.670;23.258;2024-02-23T02:58:53;10.63;;;5.20;;
5299;SDS011;70402;42.670;23.258;2024-02-23T03:01:19;12.07;;;6.27;;
5299;SDS011;70402;42.670;23.258;2024-02-23T03:03:45;6.97;;;4.53;;
5299;SDS011;70402;42.670;23.258;2024-02-23T03:06:12;10.43;;;5.40;;
5299;SDS011;70402;42.670;23.258;2024-02-23T03:08:38;11.33;;;4.87;;
5299;SDS011;70402;42.670;23.258;2024-02-23T03:11:04;7.00;;;4.40;;
5299;SDS011;70402;42.670;23.258;2024-02-23T03:13:31;7.00;;;4.97;;
5299;SDS011;70402;42.670;23.258;2024-02-23T03:15:57;6.97;;;4.13;;
5299;SDS011;70402;42.670;23.258;2024-02-23T03:18:23;7.47;;;4.67;;
5299;SDS011;70402;42.670;23.258;2024-02-23T03:20:51;9.00;;;4.70;;
5299;SDS011;70402;42.670;23.258;2024-02-23T03:23:18;7.70;;;5.13;;
5299;SDS011;70402;42.670;23.258;2024-02-23T03:25:44;7.40;;;5.00;;
5299;SDS011;70402;42.670;23.258;2024-02-23T03:28:11;9.43;;;5.70;;
5299;SDS011;70402;42.670;23.258;2024-02-23T03:30:37;8.27;;;5.10;;
5299;SDS011;70402;42.670;23.258;2024-02-23T03:33:03;8.47;;;5.13;;
5299;SDS011;70402;42.670;23.258;2024-02-23T03:35:30;11.57;;;6.50;;
5299;SDS011;70402;42.670;23.258;2024-02-23T03:37:56;12.23;;;5.07;;
5299;SDS011;70402;42.670;23.258;2024-02-23T03:40:22;12.20;;;6.43;;
5299;SDS011;70402;42.670;23.258;2024-02-23T03:42:48;11.07;;;5.60;;
5299;SDS011;70402;42.670;23.258;2024-02-23T03:45:15;9.63;;;4.53;;
5299;SDS011;70402;42.670;23.258;2024-02-23T03:47:41;9.03;;;5.50;;
5299;SDS011;70402;42.670;23.258;2024-02-23T03:50:07;6.50;;;4.70;;
5299;SDS011;70402;42.670;23.258;2024-02-23T03:52:34;7.53;;;5.17;;
5299;SDS011;70402;42.670;23.258;2024-02-23T03:55:00;12.03;;;6.73;;
5299;SDS011;70402;42.670;23.258;2024-02-23T03:57:26;11.50;;;5.80;;
5299;SDS011;70402;42.670;23.258;2024-02-23T03:59:53;11.47;;;5.80;;
5299;SDS011;70402;42.670;23.258;2024-02-23T04:02:19;9.57;;;5.80;;
5299;SDS011;70402;42.670;23.258;2024-02-23T04:04:45;9.27;;;5.03;;
5299;SDS011;70402;42.670;23.258;2024-02-23T04:07:12;7.23;;;4.67;;
5299;SDS011;70402;42.670;23.258;2024-02-23T04:09:38;6.30;;;4.30;;
5299;SDS011;70402;42.670;23.258;2024-02-23T04:12:04;7.47;;;4.10;;
5299;SDS011;70402;42.670;23.258;2024-02-23T04:14:32;8.50;;;4.47;;
5299;SDS011;70402;42.670;23.258;2024-02-23T04:17:02;9.47;;;5.33;;
5299;SDS011;70402;42.670;23.258;2024-02-23T04:19:28;11.00;;;4.93;;
5299;SDS011;70402;42.670;23.258;2024-02-23T04:21:54;7.70;;;4.90;;
5299;SDS011;70402;42.670;23.258;2024-02-23T04:24:20;8.10;;;5.37;;
5299;SDS011;70402;42.670;23.258;2024-02-23T04:26:47;8.97;;;5.30;;
5299;SDS011;70402;42.670;23.258;2024-02-23T04:29:13;7.60;;;4.30;;
5299;SDS011;70402;42.670;23.258;2024-02-23T04:31:39;8.37;;;5.13;;
5299;SDS011;70402;42.670;23.258;2024-02-23T04:34:05;8.40;;;5.20;;
5299;SDS011;70402;42.670;23.258;2024-02-23T04:36:31;8.20;;;5.20;;
5299;SDS011;70402;42.670;23.258;2024-02-23T04:38:58;10.60;;;6.27;;
5299;SDS011;70402;42.670;23.258;2024-02-23T04:41:24;8.07;;;5.03;;
5299;SDS011;70402;42.670;23.258;2024-02-23T04:43:50;8.10;;;4.90;;
5299;SDS011;70402;42.670;23.258;2024-02-23T04:46:17;8.07;;;4.90;;
5299;SDS011;70402;42.670;23.258;2024-02-23T04:48:43;8.33;;;5.47;;
5299;SDS011;70402;42.670;23.258;2024-02-23T04:51:09;16.03;;;5.93;;
5299;SDS011;70402;42.670;23.258;2024-02-23T04:53:36;8.13;;;5.13;;
5299;SDS011;70402;42.670;23.258;2024-02-23T04:56:03;8.53;;;5.47;;
5299;SDS011;70402;42.670;23.258;2024-02-23T04:58:30;8.50;;;5.03;;
5299;SDS011;70402;42.670;23.258;2024-02-23T05:00:56;9.87;;;6.37;;
5299;SDS011;70402;42.670;23.258;2024-02-23T05:03:23;9.37;;;5.80;;
5299;SDS011;70402;42.670;23.258;2024-02-23T05:05:49;9.33;;;6.20;;
5299;SDS011;70402;42.670;23.258;2024-02-23T05:08:19;11.17;;;6.10;;
5299;SDS011;70402;42.670;23.258;2024-02-23T05:10:48;11.80;;;6.30;;
5299;SDS011;70402;42.670;23.258;2024-02-23T05:13:14;13.30;;;6.80;;
5299;SDS011;70402;42.670;23.258;2024-02-23T05:15:41;11.03;;;6.40;;
5299;SDS011;70402;42.670;23.258;2024-02-23T05:18:07;10.87;;;6.83;;
5299;SDS011;70402;42.670;23.258;2024-02-23T05:20:33;10.10;;;5.80;;
5299;SDS011;70402;42.670;23.258;2024-02-23T05:22:59;11.60;;;6.60;;
5299;SDS011;70402;42.670;23.258;2024-02-23T05:25:26;11.93;;;6.37;;
5299;SDS011;70402;42.670;23.258;2024-02-23T05:27:52;12.03;;;7.10;;
5299;SDS011;70402;42.670;23.258;2024-02-23T05:30:18;10.47;;;6.40;;
5299;SDS011;70402;42.670;23.258;2024-02-23T05:32:45;10.77;;;6.00;;
5299;SDS011;70402;42.670;23.258;2024-02-23T05:35:12;9.87;;;6.50;;
5299;SDS011;70402;42.670;23.258;2024-02-23T05:37:38;10.50;;;5.73;;
5299;SDS011;70402;42.670;23.258;2024-02-23T05:40:04;12.47;;;6.03;;
5299;SDS011;70402;42.670;23.258;2024-02-23T05:42:37;11.07;;;6.90;;
5299;SDS011;70402;42.670;23.258;2024-02-23T05:45:04;9.57;;;5.93;;
5299;SDS011;70402;42.670;23.258;2024-02-23T05:47:34;8.37;;;5.80;;
5299;SDS011;70402;42.670;23.258;2024-02-23T05:50:01;14.27;;;8.87;;
5299;SDS011;70402;42.670;23.258;2024-02-23T05:52:29;19.43;;;7.03;;
5299;SDS011;70402;42.670;23.258;2024-02-23T05:54:55;7.87;;;5.23;;
5299;SDS011;70402;42.670;23.258;2024-02-23T05:57:22;10.83;;;6.37;;
5299;SDS011;70402;42.670;23.258;2024-02-23T05:59:48;9.30;;;6.50;;
5299;SDS011;70402;42.670;23.258;2024-02-23T06:02:14;16.33;;;7.40;;
5299;SDS011;70402;42.670;23.258;2024-02-23T06:04:40;11.17;;;6.33;;
5299;SDS011;70402;42.670;23.258;2024-02-23T06:07:07;16.83;;;9.10;;
5299;SDS011;70402;42.670;23.258;2024-02-23T06:09:33;18.50;;;9.27;;
5299;SDS011;70402;42.670;23.258;2024-02-23T06:11:59;11.47;;;7.27;;
5299;SDS011;70402;42.670;23.258;2024-02-23T06:14:26;14.10;;;8.77;;
5299;SDS011;70402;42.670;23.258;2024-02-23T06:16:52;10.73;;;6.17;;
5299;SDS011;70402;42.670;23.258;2024-02-23T06:19:18;12.53;;;7.67;;
5299;SDS011;70402;42.670;23.258;2024-02-23T06:21:47;10.43;;;6.57;;
5299;SDS011;70402;42.670;23.258;2024-02-23T06:24:14;9.90;;;5.80;;
5299;SDS011;70402;42.670;23.258;2024-02-23T06:26:40;10.53;;;6.67;;
5299;SDS011;70402;42.670;23.258;2024-02-23T06:29:07;8.23;;;5.37;;
5299;SDS011;70402;42.670;23.258;2024-02-23T06:31:38;11.10;;;6.00;;
5299;SDS011;70402;42.670;23.258;2024-02-23T06:34:04;9.43;;;5.40;;
5299;SDS011;70402;42.670;23.258;2024-02-23T06:36:31;7.77;;;4.97;;
5299;SDS011;70402;42.670;23.258;2024-02-23T06:38:57;9.17;;;6.10;;
5299;SDS011;70402;42.670;23.258;2024-02-23T06:41:23;11.17;;;5.67;;
5299;SDS011;70402;42.670;23.258;2024-02-23T06:43:49;9.60;;;5.73;;
5299;SDS011;70402;42.670;23.258;2024-02-23T06:46:18;9.27;;;5.57;;
5299;SDS011;70402;42.670;23.258;2024-02-23T06:48:46;9.33;;;5.50;;
5299;SDS011;70402;42.670;23.258;2024-02-23T06:51:12;7.00;;;4.70;;
5299;SDS011;70402;42.670;23.258;2024-02-23T06:53:39;10.60;;;4.80;;
5299;SDS011;70402;42.670;23.258;2024-02-23T06:56:05;11.63;;;5.87;;
5299;SDS011;70402;42.670;23.258;2024-02-23T06:58:32;11.47;;;5.03;;
5299;SDS011;70402;42.670;23.258;2024-02-23T07:00:58;7.57;;;4.97;;
5299;SDS011;70402;42.670;23.258;2024-02-23T07:03:26;9.57;;;5.57;;
5299;SDS011;70402;42.670;23.258;2024-02-23T07:05:52;9.60;;;4.90;;
5299;SDS011;70402;42.670;23.258;2024-02-23T07:08:18;11.50;;;5.37;;
5299;SDS011;70402;42.670;23.258;2024-02-23T07:10:45;10.80;;;6.00;;
5299;SDS011;70402;42.670;23.258;2024-02-23T07:13:11;8.03;;;5.80;;
5299;SDS011;70402;42.670;23.258;2024-02-23T07:15:37;12.23;;;6.20;;
5299;SDS011;70402;42.670;23.258;2024-02-23T07:18:04;9.53;;;5.77;;
5299;SDS011;70402;42.670;23.258;2024-02-23T07:20:30;6.30;;;4.70;;
5299;SDS011;70402;42.670;23.258;2024-02-23T07:22:56;9.80;;;5.30;;
5299;SDS011;70402;42.670;23.258;2024-02-23T07:25:22;7.40;;;5.23;;
5299;SDS011;70402;42.670;23.258;2024-02-23T07:27:49;10.90;;;5.57;;
5299;SDS011;70402;42.670;23.258;2024-02-23T07:30:15;11.03;;;6.03;;
5299;SDS011;70402;42.670;23.258;2024-02-23T07:32:42;6.07;;;4.37;;
5299;SDS011;70402;42.670;23.258;2024-02-23T07:35:09;10.40;;;4.80;;
5299;SDS011;70402;42.670;23.258;2024-02-23T07:37:38;12.67;;;6.00;;
5299;SDS011;70402;42.670;23.258;2024-02-23T07:40:04;9.50;;;5.30;;
5299;SDS011;70402;42.670;23.258;2024-02-23T07:42:33;10.53;;;5.83;;
5299;SDS011;70402;42.670;23.258;2024-02-23T07:45:03;8.60;;;5.97;;
5299;SDS011;70402;42.670;23.258;2024-02-23T07:47:30;7.60;;;4.70;;
5299;SDS011;70402;42.670;23.258;2024-02-23T07:49:57;7.70;;;5.40;;
5299;SDS011;70402;42.670;23.258;2024-02-23T07:52:23;10.57;;;6.10;;
5299;SDS011;70402;42.670;23.258;2024-02-23T07:54:49;14.27;;;6.03;;
5299;SDS011;70402;42.670;23.258;2024-02-23T07:57:17;9.83;;;5.87;;
5299;SDS011;70402;42.670;23.258;2024-02-23T07:59:43;10.93;;;6.27;;
5299;SDS011;70402;42.670;23.258;2024-02-23T08:02:09;9.17;;;5.40;;
5299;SDS011;70402;42.670;23.258;2024-02-23T08:04:36;10.90;;;7.30;;
5299;SDS011;70402;42.670;23.258;2024-02-23T08:07:03;13.27;;;6.73;;
5299;SDS011;70402;42.670;23.258;2024-02-23T08:09:29;12.90;;;6.70;;
5299;SDS011;70402;42.670;23.258;2024-02-23T08:11:55;9.83;;;5.80;;
5299;SDS011;70402;42.670;23.258;2024-02-23T08:14:21;31.07;;;6.80;;
5299;SDS011;70402;42.670;23.258;2024-02-23T08:16:48;11.83;;;6.60;;
5299;SDS011;70402;42.670;23.258;2024-02-23T08:19:15;16.67;;;7.83;;
5299;SDS011;70402;42.670;23.258;2024-02-23T08:21:41;11.67;;;6.70;;
5299;SDS011;70402;42.670;23.258;2024-02-23T08:24:08;13.27;;;7.33;;
5299;SDS011;70402;42.670;23.258;2024-02-23T08:26:35;11.47;;;6.97;;
5299;SDS011;70402;42.670;23.258;2024-02-23T08:29:03;15.83;;;7.63;;
5299;SDS011;70402;42.670;23.258;2024-02-23T08:31:30;15.60;;;7.57;;
5299;SDS011;70402;42.670;23.258;2024-02-23T08:33:56;13.87;;;7.87;;
5299;SDS011;70402;42.670;23.258;2024-02-23T08:36:22;10.60;;;6.40;;
5299;SDS011;70402;42.670;23.258;2024-02-23T08:38:48;13.23;;;7.10;;
5299;SDS011;70402;42.670;23.258;2024-02-23T08:41:15;12.83;;;7.30;;
5299;SDS011;70402;42.670;23.258;2024-02-23T08:43:41;13.70;;;7.53;;
5299;SDS011;70402;42.670;23.258;2024-02-23T08:46:07;15.93;;;7.40;;
5299;SDS011;70402;42.670;23.258;2024-02-23T08:48:33;9.10;;;5.50;;
5299;SDS011;70402;42.670;23.258;2024-02-23T08:50:59;9.83;;;6.67;;
5299;SDS011;70402;42.670;23.258;2024-02-23T08:53:26;8.30;;;5.50;;
5299;SDS011;70402;42.670;23.258;2024-02-23T08:55:52;12.60;;;5.87;;
5299;SDS011;70402;42.670;23.258;2024-02-23T08:58:18;8.87;;;5.43;;
5299;SDS011;70402;42.670;23.258;2024-02-23T09:00:44;9.43;;;5.10;;
5299;SDS011;70402;42.670;23.258;2024-02-23T09:03:10;8.97;;;5.47;;
5299;SDS011;70402;42.670;23.258;2024-02-23T09:05:37;7.00;;;4.27;;
5299;SDS011;70402;42.670;23.258;2024-02-23T09:08:04;6.30;;;4.70;;
5299;SDS011;70402;42.670;23.258;2024-02-23T09:10:30;6.80;;;4.23;;
5299;SDS011;70402;42.670;23.258;2024-02-23T09:12:56;10.10;;;4.87;;
5299;SDS011;70402;42.670;23.258;2024-02-23T09:15:22;6.00;;;4.20;;
5299;SDS011;70402;42.670;23.258;2024-02-23T09:17:49;6.30;;;3.77;;
5299;SDS011;70402;42.670;23.258;2024-02-23T09:20:15;6.47;;;3.30;;
5299;SDS011;70402;42.670;23.258;2024-02-23T09:22:42;6.07;;;4.03;;
5299;SDS011;70402;42.670;23.258;2024-02-23T09:25:08;7.37;;;4.77;;
5299;SDS011;70402;42.670;23.258;2024-02-23T09:27:35;13.10;;;4.80;;
5299;SDS011;70402;42.670;23.258;2024-02-23T09:30:09;11.97;;;5.50;;
5299;SDS011;70402;42.670;23.258;2024-02-23T09:32:36;7.30;;;4.40;;
5299;SDS011;70402;42.670;23.258;2024-02-23T09:35:02;8.03;;;3.83;;
5299;SDS011;70402;42.670;23.258;2024-02-23T09:37:28;9.87;;;3.40;;
5299;SDS011;70402;42.670;23.258;2024-02-23T09:39:54;6.80;;;2.80;;
5299;SDS011;70402;42.670;23.258;2024-02-23T09:42:21;4.30;;;2.97;;
5299;SDS011;70402;42.670;23.258;2024-02-23T09:44:58;3.43;;;2.83;;
5299;SDS011;70402;42.670;23.258;2024-02-23T09:47:27;6.70;;;3.13;;
5299;SDS011;70402;42.670;23.258;2024-02-23T09:49:54;4.40;;;2.50;;
5299;SDS011;70402;42.670;23.258;2024-02-23T09:52:20;4.30;;;2.80;;
5299;SDS011;70402;42.670;23.258;2024-02-23T09:54:47;3.40;;;2.67;;
5299;SDS011;70402;42.670;23.258;2024-02-23T09:57:13;5.03;;;2.57;;
5299;SDS011;70402;42.670;23.258;2024-02-23T09:59:40;3.00;;;2.50;;
5299;SDS011;70402;42.670;23.258;2024-02-23T10:02:11;3.90;;;2.37;;
5299;SDS011;70402;42.670;23.258;2024-02-23T10:04:40;3.20;;;2.17;;
5299;SDS011;70402;42.670;23.258;2024-02-23T10:07:08;2.87;;;1.80;;
5299;SDS011;70402;42.670;23.258;2024-02-23T10:09:35;4.03;;;2.10;;
5299;SDS011;70402;42.670;23.258;2024-02-23T10:12:02;6.23;;;2.07;;
5299;SDS011;70402;42.670;23.258;2024-02-23T10:14:28;2.37;;;2.00;;
5299;SDS011;70402;42.670;23.258;2024-02-23T10:16:54;3.67;;;2.00;;
5299;SDS011;70402;42.670;23.258;2024-02-23T10:19:20;2.70;;;1.90;;
5299;SDS011;70402;42.670;23.258;2024-02-23T10:21:47;2.83;;;2.00;;
5299;SDS011;70402;42.670;23.258;2024-02-23T10:24:16;2.13;;;1.67;;
5299;SDS011;70402;42.670;23.258;2024-02-23T10:26:42;2.37;;;1.70;;
5299;SDS011;70402;42.670;23.258;2024-02-23T10:29:08;2.57;;;1.77;;
5299;SDS011;70402;42.670;23.258;2024-02-23T10:31:35;5.13;;;2.97;;
5299;SDS011;70402;42.670;23.258;2024-02-23T10:34:04;2.97;;;1.80;;
5299;SDS011;70402;42.670;23.258;2024-02-23T10:36:36;2.70;;;2.20;;
5299;SDS011;70402;42.670;23.258;2024-02-23T10:39:02;1.83;;;1.30;;
5299;SDS011;70402;42.670;23.258;2024-02-23T10:41:29;1.70;;;1.37;;
5299;SDS011;70402;42.670;23.258;2024-02-23T10:43:58;3.70;;;2.27;;
5299;SDS011;70402;42.670;23.258;2024-02-23T10:46:25;6.70;;;1.80;;
5299;SDS011;70402;42.670;23.258;2024-02-23T10:48:51;1.80;;;1.60;;
5299;SDS011;70402;42.670;23.258;2024-02-23T10:51:18;2.43;;;1.63;;
5299;SDS011;70402;42.670;23.258;2024-02-23T10:53:44;2.77;;;1.80;;
5299;SDS011;70402;42.670;23.258;2024-02-23T10:56:11;2.60;;;1.50;;
5299;SDS011;70402;42.670;23.258;2024-02-23T10:58:37;2.30;;;1.50;;
5299;SDS011;70402;42.670;23.258;2024-02-23T11:01:05;3.33;;;1.70;;
5299;SDS011;70402;42.670;23.258;2024-02-23T11:03:32;3.43;;;1.70;;
5299;SDS011;70402;42.670;23.258;2024-02-23T11:05:59;1.97;;;1.40;;
5299;SDS011;70402;42.670;23.258;2024-02-23T11:08:28;1.60;;;1.30;;
5299;SDS011;70402;42.670;23.258;2024-02-23T11:10:54;4.10;;;1.90;;
5299;SDS011;70402;42.670;23.258;2024-02-23T11:13:30;2.60;;;1.40;;
5299;SDS011;70402;42.670;23.258;2024-02-23T11:16:03;3.53;;;1.77;;
5299;SDS011;70402;42.670;23.258;2024-02-23T11:18:29;2.67;;;1.63;;
5299;SDS011;70402;42.670;23.258;2024-02-23T11:21:01;1.77;;;1.50;;
5299;SDS011;70402;42.670;23.258;2024-02-23T11:23:38;5.53;;;1.33;;
5299;SDS011;70402;42.670;23.258;2024-02-23T11:26:04;3.97;;;2.40;;
5299;SDS011;70402;42.670;23.258;2024-02-23T11:28:41;2.13;;;1.40;;
5299;SDS011;70402;42.670;23.258;2024-02-23T11:31:11;1.40;;;1.00;;
5299;SDS011;70402;42.670;23.258;2024-02-23T11:33:37;3.30;;;1.80;;
5299;SDS011;70402;42.670;23.258;2024-02-23T11:36:07;2.50;;;1.70;;
5299;SDS011;70402;42.670;23.258;2024-02-23T11:38:33;2.43;;;1.87;;
5299;SDS011;70402;42.670;23.258;2024-02-23T11:41:00;2.47;;;1.50;;
5299;SDS011;70402;42.670;23.258;2024-02-23T11:43:26;3.77;;;1.43;;
5299;SDS011;70402;42.670;23.258;2024-02-23T11:45:53;4.07;;;1.73;;
5299;SDS011;70402;42.670;23.258;2024-02-23T11:48:19;3.70;;;1.70;;
5299;SDS011;70402;42.670;23.258;2024-02-23T11:50:47;2.20;;;1.33;;
5299;SDS011;70402;42.670;23.258;2024-02-23T11:53:14;1.30;;;1.00;;
5299;SDS011;70402;42.670;23.258;2024-02-23T11:55:40;2.90;;;1.70;;
5299;SDS011;70402;42.670;23.258;2024-02-23T11:58:07;2.33;;;1.73;;
5299;SDS011;70402;42.670;23.258;2024-02-23T12:00:34;2.23;;;1.40;;
5299;SDS011;70402;42.670;23.258;2024-02-23T12:03:00;3.10;;;1.70;;
5299;SDS011;70402;42.670;23.258;2024-02-23T12:05:26;2.20;;;1.53;;
5299;SDS011;70402;42.670;23.258;2024-02-23T12:07:53;2.13;;;1.57;;
5299;SDS011;70402;42.670;23.258;2024-02-23T12:10:19;2.37;;;1.50;;
5299;SDS011;70402;42.670;23.258;2024-02-23T12:12:46;2.00;;;1.60;;
5299;SDS011;70402;42.670;23.258;2024-02-23T12:15:12;2.90;;;1.70;;
5299;SDS011;70402;42.670;23.258;2024-02-23T12:17:46;4.00;;;2.00;;
5299;SDS011;70402;42.670;23.258;2024-02-23T12:20:12;3.53;;;1.67;;
5299;SDS011;70402;42.670;23.258;2024-02-23T12:22:40;1.57;;;1.33;;
5299;SDS011;70402;42.670;23.258;2024-02-23T12:25:06;5.07;;;3.10;;
5299;SDS011;70402;42.670;23.258;2024-02-23T12:27:32;3.50;;;1.40;;
5299;SDS011;70402;42.670;23.258;2024-02-23T12:29:58;7.43;;;3.27;;
5299;SDS011;70402;42.670;23.258;2024-02-23T12:32:25;2.07;;;1.70;;
5299;SDS011;70402;42.670;23.258;2024-02-23T12:34:52;4.17;;;2.37;;
5299;SDS011;70402;42.670;23.258;2024-02-23T12:37:18;2.20;;;1.70;;
5299;SDS011;70402;42.670;23.258;2024-02-23T12:39:45;2.77;;;1.83;;
5299;SDS011;70402;42.670;23.258;2024-02-23T12:42:11;4.50;;;2.37;;
5299;SDS011;70402;42.670;23.258;2024-02-23T12:44:38;4.13;;;2.17;;
5299;SDS011;70402;42.670;23.258;2024-02-23T12:47:04;6.80;;;3.67;;
5299;SDS011;70402;42.670;23.258;2024-02-23T12:49:30;4.53;;;1.90;;
5299;SDS011;70402;42.670;23.258;2024-02-23T12:51:56;2.70;;;1.33;;
5299;SDS011;70402;42.670;23.258;2024-02-23T12:54:22;7.33;;;3.57;;
5299;SDS011;70402;42.670;23.258;2024-02-23T12:56:49;4.20;;;1.60;;
5299;SDS011;70402;42.670;23.258;2024-02-23T12:59:15;1.67;;;1.30;;
5299;SDS011;70402;42.670;23.258;2024-02-23T13:01:41;1.87;;;1.23;;
5299;SDS011;70402;42.670;23.258;2024-02-23T13:04:07;2.27;;;1.43;;
5299;SDS011;70402;42.670;23.258;2024-02-23T13:06:39;2.37;;;1.60;;
5299;SDS011;70402;42.670;23.258;2024-02-23T13:09:05;2.10;;;1.53;;
5299;SDS011;70402;42.670;23.258;2024-02-23T13:11:38;1.93;;;1.70;;
5299;SDS011;70402;42.670;23.258;2024-02-23T13:14:04;1.87;;;1.30;;
5299;SDS011;70402;42.670;23.258;2024-02-23T13:16:30;4.47;;;1.60;;
5299;SDS011;70402;42.670;23.258;2024-02-23T13:18:57;1.70;;;1.40;;
5299;SDS011;70402;42.670;23.258;2024-02-23T13:21:23;2.97;;;2.00;;
5299;SDS011;70402;42.670;23.258;2024-02-23T13:23:49;1.60;;;1.20;;
5299;SDS011;70402;42.670;23.258;2024-02-23T13:26:15;2.63;;;1.50;;
5299;SDS011;70402;42.670;23.258;2024-02-23T13:28:42;2.60;;;1.83;;
5299;SDS011;70402;42.670;23.258;2024-02-23T13:31:09;3.60;;;2.07;;
5299;SDS011;70402;42.670;23.258;2024-02-23T13:33:35;1.53;;;1.20;;
5299;SDS011;70402;42.670;23.258;2024-02-23T13:36:01;2.30;;;1.70;;
5299;SDS011;70402;42.670;23.258;2024-02-23T13:38:27;9.23;;;1.80;;
5299;SDS011;70402;42.670;23.258;2024-02-23T13:40:54;4.60;;;1.33;;
5299;SDS011;70402;42.670;23.258;2024-02-23T13:43:20;1.73;;;1.53;;
5299;SDS011;70402;42.670;23.258;2024-02-23T13:45:49;1.37;;;1.10;;
5299;SDS011;70402;42.670;23.258;2024-02-23T13:48:16;2.00;;;1.70;;
5299;SDS011;70402;42.670;23.258;2024-02-23T13:50:44;2.23;;;1.60;;
5299;SDS011;70402;42.670;23.258;2024-02-23T13:53:11;1.40;;;1.10;;
5299;SDS011;70402;42.670;23.258;2024-02-23T13:55:40;2.20;;;1.90;;
5299;SDS011;70402;42.670;23.258;2024-02-23T13:58:09;2.23;;;1.60;;
5299;SDS011;70402;42.670;23.258;2024-02-23T14:00:36;1.70;;;1.30;;
5299;SDS011;70402;42.670;23.258;2024-02-23T14:03:02;1.60;;;1.40;;
5299;SDS011;70402;42.670;23.258;2024-02-23T14:05:28;3.40;;;1.40;;
5299;SDS011;70402;42.670;23.258;2024-02-23T14:07:55;2.23;;;1.20;;
5299;SDS011;70402;42.670;23.258;2024-02-23T14:10:21;3.00;;;1.67;;
5299;SDS011;70402;42.670;23.258;2024-02-23T14:12:48;3.27;;;2.60;;
5299;SDS011;70402;42.670;23.258;2024-02-23T14:15:17;2.60;;;1.30;;
5299;SDS011;70402;42.670;23.258;2024-02-23T14:17:43;2.70;;;2.00;;
5299;SDS011;70402;42.670;23.258;2024-02-23T14:20:09;7.53;;;1.40;;
5299;SDS011;70402;42.670;23.258;2024-02-23T14:22:36;4.87;;;2.30;;
5299;SDS011;70402;42.670;23.258;2024-02-23T14:25:02;1.90;;;1.40;;
5299;SDS011;70402;42.670;23.258;2024-02-23T14:27:28;2.50;;;1.90;;
5299;SDS011;70402;42.670;23.258;2024-02-23T14:29:54;2.07;;;1.40;;
5299;SDS011;70402;42.670;23.258;2024-02-23T14:32:21;2.80;;;1.73;;
5299;SDS011;70402;42.670;23.258;2024-02-23T14:34:47;3.23;;;1.50;;
5299;SDS011;70402;42.670;23.258;2024-02-23T14:37:14;2.00;;;1.30;;
5299;SDS011;70402;42.670;23.258;2024-02-23T14:39:41;2.40;;;1.70;;